createdAt,value
2023-04-23T00:00:13.634Z,100101.53
2023-04-23T00:02:47.086Z,100096.94
2023-04-23T00:05:16.798Z,100102.84
2023-04-23T00:07:45.438Z,100105.47
2023-04-23T00:10:14.226Z,100106.28
2023-04-23T00:12:44.529Z,100097.38
2023-04-23T00:15:14.798Z,100098.22
2023-04-23T00:17:43.047Z,100099.19
2023-04-23T00:20:11.842Z,100092.50
2023-04-23T00:22:39.981Z,100095.94
2023-04-23T00:25:08.767Z,100098.56
2023-04-23T00:27:37.030Z,100095.66
2023-04-23T00:30:09.162Z,100095.00
2023-04-23T00:32:37.475Z,100098.34
2023-04-23T00:35:06.414Z,100092.78
2023-04-23T00:37:34.667Z,100101.69
2023-04-23T00:40:04.716Z,100088.88
2023-04-23T00:42:33.193Z,100092.03
2023-04-23T00:45:03.116Z,100085.47
2023-04-23T00:47:33.670Z,100083.38
2023-04-23T00:50:02.200Z,100084.91
2023-04-23T00:52:30.814Z,100088.72
2023-04-23T00:54:59.094Z,100089.69
2023-04-23T00:57:28.134Z,100082.16
2023-04-23T00:59:59.575Z,100081.34
2023-04-23T01:02:28.781Z,100084.78
2023-04-23T01:05:00.026Z,100079.69
2023-04-23T01:07:28.873Z,100084.78
2023-04-23T01:09:57.433Z,100077.06
2023-04-23T01:12:25.944Z,100079.88
2023-04-23T01:14:54.630Z,100075.81
2023-04-23T01:17:23.109Z,100071.69
2023-04-23T01:19:51.674Z,100077.94
2023-04-23T01:22:22.353Z,100075.94
2023-04-23T01:24:51.688Z,100073.31
2023-04-23T01:27:21.070Z,100076.78
2023-04-23T01:29:50.408Z,100074.94
2023-04-23T01:32:19.045Z,100078.25
2023-04-23T01:34:48.980Z,100079.25
2023-04-23T01:37:18.228Z,100068.06
2023-04-23T01:39:47.948Z,100075.81
2023-04-23T01:42:16.070Z,100076.13
2023-04-23T01:44:44.388Z,100070.69
2023-04-23T01:47:12.587Z,100073.31
2023-04-23T01:49:40.975Z,100070.06
2023-04-23T01:52:09.371Z,100068.88
2023-04-23T01:54:37.704Z,100068.06
2023-04-23T01:57:07.420Z,100068.06
2023-04-23T01:59:35.645Z,100067.91
2023-04-23T02:02:04.098Z,100068.72
2023-04-23T02:04:32.657Z,100069.34
2023-04-23T02:07:01.456Z,100068.22
2023-04-23T02:09:29.996Z,100072.81
2023-04-23T02:11:59.794Z,100070.19
2023-04-23T02:14:29.526Z,100073.63
2023-04-23T02:16:58.037Z,100073.00
2023-04-23T02:19:26.290Z,100069.53
2023-04-23T02:21:54.583Z,100072.31
2023-04-23T02:24:23.197Z,100082.50
2023-04-23T02:26:51.356Z,100067.72
2023-04-23T02:29:19.616Z,100076.63
2023-04-23T02:31:49.309Z,100084.50
2023-04-23T02:34:17.414Z,100079.88
2023-04-23T02:36:45.583Z,100079.88
2023-04-23T02:39:13.904Z,100079.06
2023-04-23T02:41:42.058Z,100082.84
2023-04-23T02:44:10.218Z,100074.81
2023-04-23T02:46:38.731Z,100077.59
2023-04-23T02:49:08.383Z,100079.41
2023-04-23T02:51:36.633Z,100080.22
2023-04-23T02:54:06.122Z,100082.69
2023-04-23T02:56:34.820Z,100080.22
2023-04-23T02:59:02.989Z,100081.22
2023-04-23T03:01:31.508Z,100078.94
2023-04-23T03:04:00.736Z,100084.03
2023-04-23T03:06:32.086Z,100088.47
2023-04-23T03:09:00.450Z,100091.09
2023-04-23T03:11:28.624Z,100081.56
2023-04-23T03:13:56.980Z,100087.47
2023-04-23T03:16:25.977Z,100075.13
2023-04-23T03:18:54.236Z,100080.88
2023-04-23T03:21:22.643Z,100076.63
2023-04-23T03:23:52.315Z,100087.75
2023-04-23T03:26:20.480Z,100081.69
2023-04-23T03:28:48.775Z,100087.75
2023-04-23T03:31:17.153Z,100094.00
2023-04-23T03:33:45.483Z,100094.19
2023-04-23T03:36:13.731Z,100095.16
2023-04-23T03:38:41.862Z,100097.63
2023-04-23T03:41:12.464Z,100095.81
2023-04-23T03:43:40.762Z,100097.63
2023-04-23T03:46:08.938Z,100087.66
2023-04-23T03:48:37.137Z,100093.56
2023-04-23T03:51:05.760Z,100094.28
2023-04-23T03:53:33.966Z,100099.84
2023-04-23T03:56:02.160Z,100095.97
2023-04-23T03:58:31.761Z,100096.78
2023-04-23T04:01:00.016Z,100096.94
2023-04-23T04:03:29.311Z,100095.47
2023-04-23T04:05:57.764Z,100098.25
2023-04-23T04:08:26.762Z,100096.31
2023-04-23T04:10:55.104Z,100104.81
2023-04-23T04:13:24.002Z,100102.03
2023-04-23T04:15:54.574Z,100090.53
2023-04-23T04:18:22.890Z,100098.06
2023-04-23T04:20:52.399Z,100100.38
2023-04-23T04:23:20.739Z,100103.66
2023-04-23T04:25:51.154Z,100101.84
2023-04-23T04:28:19.414Z,100096.78
2023-04-23T04:30:49.539Z,100099.56
2023-04-23T04:33:19.183Z,100096.78
2023-04-23T04:35:49.147Z,100088.72
2023-04-23T04:38:17.326Z,100087.91
2023-04-23T04:40:48.981Z,100099.72
2023-04-23T04:43:18.543Z,100090.19
2023-04-23T04:45:46.758Z,100095.28
2023-04-23T04:48:15.109Z,100097.72
2023-04-23T04:50:44.673Z,100103.63
2023-04-23T04:53:14.646Z,100100.53
2023-04-23T04:55:43.115Z,100102.34
2023-04-23T04:58:11.531Z,100100.03
2023-04-23T05:00:39.789Z,100102.16
2023-04-23T05:03:08.982Z,100105.97
2023-04-23T05:05:38.607Z,100105.13
2023-04-23T05:08:08.816Z,100106.94
2023-04-23T05:10:37.002Z,100110.38
2023-04-23T05:13:05.319Z,100106.94
2023-04-23T05:15:33.514Z,100115.63
2023-04-23T05:18:01.874Z,100115.81
2023-04-23T05:20:30.078Z,100116.63
2023-04-23T05:22:59.668Z,100113.84
2023-04-23T05:25:30.411Z,100111.22
2023-04-23T05:27:58.915Z,100120.72
2023-04-23T05:30:27.215Z,100119.91
2023-04-23T05:32:55.681Z,100123.34
2023-04-23T05:35:24.947Z,100129.44
2023-04-23T05:37:53.127Z,100132.88
2023-04-23T05:40:21.396Z,100131.88
2023-04-23T05:42:50.941Z,100134.78
2023-04-23T05:45:19.247Z,100134.47
2023-04-23T05:47:47.504Z,100132.66
2023-04-23T05:50:15.709Z,100135.59
2023-04-23T05:52:43.884Z,100130.81
2023-04-23T05:55:12.291Z,100134.06
2023-04-23T05:57:40.550Z,100127.66
2023-04-23T06:00:11.897Z,100130.09
2023-04-23T06:02:40.147Z,100128.66
2023-04-23T06:05:09.604Z,100129.63
2023-04-23T06:07:38.133Z,100131.97
2023-04-23T06:10:07.220Z,100130.66
2023-04-23T06:12:39.169Z,100129.22
2023-04-23T06:15:11.488Z,100127.41
2023-04-23T06:17:40.556Z,100143.66
2023-04-23T06:20:12.077Z,100144.28
2023-04-23T06:22:40.696Z,100143.75
2023-04-23T06:25:09.687Z,100156.25
2023-04-23T06:27:37.793Z,100142.09
2023-04-23T06:30:07.043Z,100147.97
2023-04-23T06:32:36.996Z,100138.75
2023-04-23T06:35:06.391Z,100147.75
2023-04-23T06:37:34.907Z,100147.25
2023-04-23T06:40:03.160Z,100156.09
2023-04-23T06:42:31.362Z,100158.63
2023-04-23T06:45:06.060Z,100155.97
2023-04-23T06:47:36.162Z,100165.63
2023-04-23T06:50:06.017Z,100161.00
2023-04-23T06:52:34.323Z,100164.09
2023-04-23T06:55:02.557Z,100161.13
2023-04-23T06:57:30.772Z,100156.66
2023-04-23T07:00:00.489Z,100163.84
2023-04-23T07:02:28.764Z,100169.41
2023-04-23T07:04:58.522Z,100167.88
2023-04-23T07:07:26.923Z,100175.06
2023-04-23T07:09:55.233Z,100170.25
2023-04-23T07:12:23.555Z,100172.06
2023-04-23T07:14:53.639Z,100177.47
2023-04-23T07:17:21.929Z,100177.28
2023-04-23T07:19:50.740Z,100180.19
2023-04-23T07:22:20.594Z,100170.94
2023-04-23T07:24:48.835Z,100175.19
2023-04-23T07:27:17.007Z,100179.97
2023-04-23T07:29:45.240Z,100177.44
2023-04-23T07:32:13.576Z,100182.06
2023-04-23T07:34:42.335Z,100187.91
2023-04-23T07:37:11.049Z,100187.34
2023-04-23T07:39:43.826Z,100174.84
2023-04-23T07:42:12.416Z,100176.94
2023-04-23T07:44:41.173Z,100175.91
2023-04-23T07:47:09.751Z,100178.91
2023-04-23T07:49:38.051Z,100177.47
2023-04-23T07:52:06.361Z,100189.81
2023-04-23T07:54:34.571Z,100193.00
2023-04-23T07:57:04.401Z,100196.25
2023-04-23T07:59:32.675Z,100189.16
2023-04-23T08:02:00.903Z,100194.91
2023-04-23T08:04:29.381Z,100192.06
2023-04-23T08:06:58.814Z,100199.91
2023-04-23T08:09:27.181Z,100198.81
2023-04-23T08:11:55.549Z,100198.88
2023-04-23T08:14:25.200Z,100201.63
2023-04-23T08:16:53.408Z,100202.09
2023-04-23T08:19:21.610Z,100206.16
2023-04-23T08:21:50.871Z,100209.06
2023-04-23T08:24:19.491Z,100202.81
2023-04-23T08:26:48.506Z,100206.06
2023-04-23T08:29:16.566Z,100208.50
2023-04-23T08:31:46.338Z,100212.16
2023-04-23T08:34:15.113Z,100214.59
2023-04-23T08:36:43.470Z,100214.88
2023-04-23T08:39:11.657Z,100216.41
2023-04-23T08:41:43.004Z,100217.31
2023-04-23T08:44:18.483Z,100225.13
2023-04-23T08:46:48.115Z,100227.22
2023-04-23T08:49:18.009Z,100227.47
2023-04-23T08:51:51.016Z,100229.53
2023-04-23T08:54:26.837Z,100234.88
2023-04-23T08:56:58.514Z,100248.59
2023-04-23T08:59:27.334Z,100247.41
2023-04-23T09:01:57.842Z,100241.84
2023-04-23T09:04:27.000Z,100253.22
2023-04-23T09:06:56.922Z,100258.03
2023-04-23T09:09:26.916Z,100263.88
2023-04-23T09:11:55.169Z,100271.78
2023-04-23T09:14:25.220Z,100267.72
2023-04-23T09:16:54.537Z,100268.06
2023-04-23T09:19:25.417Z,100263.50
2023-04-23T09:21:54.359Z,100265.50
2023-04-23T09:24:24.034Z,100266.25
2023-04-23T09:26:54.927Z,100275.13
2023-04-23T09:29:24.771Z,100276.53
2023-04-23T09:31:55.487Z,100294.34
2023-04-23T09:34:27.893Z,100290.13
2023-04-23T09:36:56.602Z,100290.06
2023-04-23T09:39:25.539Z,100297.25
2023-04-23T09:41:54.531Z,100305.19
2023-04-23T09:44:23.906Z,100305.16
2023-04-23T09:46:52.181Z,100305.53
2023-04-23T09:49:20.868Z,100316.22
2023-04-23T09:51:51.329Z,100317.13
2023-04-23T09:54:21.875Z,100320.28
2023-04-23T09:56:53.898Z,100316.09
2023-04-23T09:59:32.597Z,100316.19
2023-04-23T10:02:12.789Z,100319.53
2023-04-23T10:04:42.217Z,100324.09
2023-04-23T10:07:19.855Z,100315.19
2023-04-23T10:09:49.300Z,100317.81
2023-04-23T10:14:53.945Z,100324.09
2023-04-23T10:17:22.271Z,100330.03
2023-04-23T10:19:51.690Z,100333.91
2023-04-23T10:22:23.976Z,100329.59
2023-04-23T10:24:56.127Z,100338.13
2023-04-23T10:27:40.557Z,100344.38
2023-04-23T10:30:17.605Z,100354.06
2023-04-23T10:32:48.193Z,100351.88
2023-04-23T10:35:16.292Z,100349.91
2023-04-23T10:37:47.074Z,100355.31
2023-04-23T10:40:16.581Z,100360.38
2023-04-23T10:42:45.556Z,100368.25
2023-04-23T10:45:24.034Z,100358.88
2023-04-23T10:47:55.485Z,100361.50
2023-04-23T10:50:26.771Z,100365.75
2023-04-23T10:52:58.152Z,100371.03
2023-04-23T10:55:28.675Z,100373.22
2023-04-23T10:58:00.891Z,100372.03
2023-04-23T11:00:32.312Z,100369.19
2023-04-23T11:03:00.784Z,100380.03
2023-04-23T11:05:29.407Z,100379.25
2023-04-23T11:08:18.817Z,100377.50
2023-04-23T11:10:56.263Z,100382.69
2023-04-23T11:13:26.174Z,100375.88
2023-04-23T11:16:18.628Z,100376.56
2023-04-23T11:19:00.311Z,100383.25
2023-04-23T11:22:02.421Z,100383.59
2023-04-23T11:24:34.582Z,100389.91
2023-04-23T11:27:02.955Z,100397.16
2023-04-23T11:29:31.212Z,100390.59
2023-04-23T11:32:02.951Z,100392.81
2023-04-23T11:34:32.138Z,100393.22
2023-04-23T11:37:01.556Z,100404.13
2023-04-23T11:39:29.970Z,100409.66
2023-04-23T11:42:03.604Z,100409.13
2023-04-23T11:44:32.303Z,100415.88
2023-04-23T11:47:02.822Z,100417.19
2023-04-23T11:49:31.264Z,100412.81
2023-04-23T11:52:02.241Z,100410.56
2023-04-23T11:54:30.827Z,100408.91
2023-04-23T11:57:01.580Z,100401.00
2023-04-23T11:59:30.123Z,100407.09
2023-04-23T12:02:00.501Z,100407.28
2023-04-23T12:04:30.442Z,100398.00
2023-04-23T12:07:00.301Z,100411.19
2023-04-23T12:09:30.044Z,100414.47
2023-04-23T12:12:00.418Z,100421.41
2023-04-23T12:14:30.830Z,100419.84
2023-04-23T12:17:10.311Z,100418.47
2023-04-23T12:19:38.516Z,100423.44
2023-04-23T12:22:08.695Z,100415.00
2023-04-23T12:24:48.638Z,100420.56
2023-04-23T12:27:22.129Z,100423.00
2023-04-23T12:29:51.330Z,100432.75
2023-04-23T12:32:23.213Z,100431.63
2023-04-23T12:34:55.912Z,100436.13
2023-04-23T12:37:27.174Z,100433.59
2023-04-23T12:39:57.085Z,100427.50
2023-04-23T12:42:27.136Z,100429.69
2023-04-23T12:44:56.819Z,100429.50
2023-04-23T12:47:25.137Z,100427.94
2023-04-23T12:49:55.756Z,100432.84
2023-04-23T12:52:24.066Z,100438.03
2023-04-23T12:54:56.467Z,100436.56
2023-04-23T12:57:27.801Z,100433.53
2023-04-23T12:59:56.591Z,100437.44
2023-04-23T13:02:26.807Z,100442.69
2023-04-23T13:05:01.166Z,100444.19
2023-04-23T13:07:30.120Z,100453.38
2023-04-23T13:09:59.750Z,100459.72
2023-04-23T13:12:29.335Z,100458.53
2023-04-23T13:14:57.723Z,100461.25
2023-04-23T13:17:26.551Z,100455.19
2023-04-23T13:19:55.703Z,100460.16
2023-04-23T13:22:28.563Z,100452.03
2023-04-23T13:24:57.317Z,100462.28
2023-04-23T13:27:27.427Z,100460.22
2023-04-23T13:29:57.290Z,100461.22
2023-04-23T13:32:27.547Z,100463.66
2023-04-23T13:35:00.589Z,100475.91
2023-04-23T13:37:28.763Z,100473.69
2023-04-23T13:39:56.875Z,100476.53
2023-04-23T13:42:25.065Z,100475.06
2023-04-23T13:44:56.372Z,100468.19
2023-04-23T13:47:27.021Z,100462.97
2023-04-23T13:49:55.204Z,100464.34
2023-04-23T13:52:23.478Z,100460.31
2023-04-23T13:54:52.972Z,100471.41
2023-04-23T13:57:21.180Z,100467.34
2023-04-23T13:59:49.535Z,100475.53
2023-04-23T14:02:17.702Z,100473.59
2023-04-23T14:04:47.345Z,100480.56
2023-04-23T14:07:15.611Z,100482.25
2023-04-23T14:09:44.980Z,100482.25
2023-04-23T14:12:13.470Z,100487.72
2023-04-23T14:14:41.798Z,100484.03
2023-04-23T14:17:09.975Z,100484.22
2023-04-23T14:19:38.201Z,100481.19
2023-04-23T14:22:07.860Z,100485.03
2023-04-23T14:24:40.631Z,100486.19
2023-04-23T14:27:08.879Z,100484.31
2023-04-23T14:29:42.371Z,100488.94
2023-04-23T14:32:10.918Z,100488.47
2023-04-23T14:34:39.698Z,100485.75
2023-04-23T14:37:09.537Z,100480.56
2023-04-23T14:39:37.839Z,100480.47
2023-04-23T14:42:06.364Z,100488.53
2023-04-23T14:44:34.626Z,100489.44
2023-04-23T14:47:02.736Z,100510.72
2023-04-23T14:49:31.081Z,100515.50
2023-04-23T14:51:59.765Z,100519.03
2023-04-23T14:54:29.321Z,100518.91
2023-04-23T14:56:57.757Z,100510.38
2023-04-23T14:59:25.985Z,100519.72
2023-04-23T15:01:54.262Z,100514.25
2023-04-23T15:04:22.579Z,100516.75
2023-04-23T15:06:50.982Z,100519.84
2023-04-23T15:09:19.194Z,100526.88
2023-04-23T15:11:48.906Z,100523.59
2023-04-23T15:14:25.792Z,100521.69
2023-04-23T15:16:54.247Z,100529.59
2023-04-23T15:19:22.626Z,100527.97
2023-04-23T15:21:51.078Z,100519.03
2023-04-23T15:24:19.409Z,100508.75
2023-04-23T15:26:49.891Z,100504.81
2023-04-23T15:29:18.079Z,100500.25
2023-04-23T15:31:46.307Z,100503.63
2023-04-23T15:34:14.455Z,100496.06
2023-04-23T15:36:42.598Z,100491.91
2023-04-23T15:39:11.043Z,100507.66
2023-04-23T15:41:40.982Z,100507.91
2023-04-23T15:44:12.777Z,100515.09
2023-04-23T15:46:41.324Z,100517.19
2023-04-23T15:49:09.651Z,100516.63
2023-04-23T15:51:38.480Z,100515.88
2023-04-23T15:54:08.713Z,100510.28
2023-04-23T15:56:37.884Z,100509.97
2023-04-23T15:59:06.286Z,100514.50
2023-04-23T16:01:36.537Z,100500.88
2023-04-23T16:06:35.922Z,100507.16
2023-04-23T16:09:07.312Z,100509.09
2023-04-23T16:11:36.277Z,100496.00
2023-04-23T16:14:04.947Z,100507.28
2023-04-23T16:16:33.286Z,100520.03
2023-04-23T16:19:03.415Z,100515.31
2023-04-23T16:21:32.264Z,100522.94
2023-04-23T16:24:00.805Z,100521.03
2023-04-23T16:26:29.426Z,100519.41
2023-04-23T16:29:11.403Z,100524.88
2023-04-23T16:31:46.336Z,100522.81
2023-04-23T16:34:16.166Z,100522.59
2023-04-23T16:36:44.464Z,100520.31
2023-04-23T16:39:12.766Z,100527.44
2023-04-23T16:41:40.894Z,100531.84
2023-04-23T16:44:09.158Z,100531.22
2023-04-23T16:46:37.935Z,100538.72
2023-04-23T16:49:06.100Z,100540.25
2023-04-23T16:51:36.631Z,100539.03
2023-04-23T16:54:04.964Z,100549.50
2023-04-23T16:56:33.195Z,100545.03
2023-04-23T16:59:02.091Z,100541.56
2023-04-23T17:01:30.429Z,100543.84
2023-04-23T17:03:58.979Z,100543.09
2023-04-23T17:06:29.061Z,100554.75
2023-04-23T17:09:00.431Z,100546.66
2023-04-23T17:11:29.722Z,100552.56
2023-04-23T17:13:58.804Z,100559.69
2023-04-23T17:16:27.707Z,100556.22
2023-04-23T17:18:56.647Z,100556.22
2023-04-23T17:21:26.004Z,100557.03
2023-04-23T17:23:54.378Z,100551.38
2023-04-23T17:26:24.384Z,100545.34
2023-04-23T17:28:52.638Z,100551.06
2023-04-23T17:31:21.147Z,100554.34
2023-04-23T17:33:50.464Z,100560.44
2023-04-23T17:36:18.761Z,100552.72
2023-04-23T17:38:47.199Z,100556.53
2023-04-23T17:41:16.867Z,100545.34
2023-04-23T17:43:46.738Z,100555.09
2023-04-23T17:46:15.038Z,100551.63
2023-04-23T17:48:43.581Z,100558.91
2023-04-23T17:51:11.820Z,100558.91
2023-04-23T17:53:42.223Z,100566.22
2023-04-23T17:56:13.637Z,100559.31
2023-04-23T17:58:42.117Z,100563.94
2023-04-23T18:01:11.917Z,100562.78
2023-04-23T18:03:40.318Z,100566.22
2023-04-23T18:06:09.370Z,100563.94
2023-04-23T18:08:39.026Z,100566.13
2023-04-23T18:11:08.953Z,100565.06
2023-04-23T18:13:37.527Z,100561.81
2023-04-23T18:16:05.908Z,100566.81
2023-04-23T18:18:35.703Z,100567.81
2023-04-23T18:21:04.699Z,100564.53
2023-04-23T18:23:32.971Z,100572.66
2023-04-23T18:26:02.175Z,100572.81
2023-04-23T18:28:30.461Z,100581.16
2023-04-23T18:31:02.703Z,100577.22
2023-04-23T18:33:33.826Z,100582.50
2023-04-23T18:36:14.858Z,100585.97
2023-04-23T18:38:45.827Z,100581.03
2023-04-23T18:41:16.240Z,100585.50
2023-04-23T18:43:44.416Z,100585.91
2023-04-23T18:46:12.835Z,100597.44
2023-04-23T18:48:47.108Z,100602.94
2023-04-23T18:51:26.643Z,100592.72
2023-04-23T18:53:54.874Z,100595.53
2023-04-23T18:56:25.076Z,100599.34
2023-04-23T18:58:53.369Z,100611.75
2023-04-23T19:01:21.682Z,100607.00
2023-04-23T19:03:51.905Z,100609.22
2023-04-23T19:06:21.794Z,100611.88
2023-04-23T19:08:50.064Z,100614.84
2023-04-23T19:11:18.377Z,100623.13
2023-04-23T19:13:46.827Z,100620.59
2023-04-23T19:16:16.782Z,100627.22
2023-04-23T19:18:45.596Z,100629.41
2023-04-23T19:21:13.929Z,100630.13
2023-04-23T19:23:44.052Z,100635.94
2023-04-23T19:26:12.284Z,100635.66
2023-04-23T19:28:40.805Z,100637.84
2023-04-23T19:31:09.344Z,100648.06
2023-04-23T19:33:37.548Z,100650.25
2023-04-23T19:36:06.090Z,100656.25
2023-04-23T19:38:34.453Z,100652.50
2023-04-23T19:41:03.983Z,100658.94
2023-04-23T19:43:32.242Z,100663.56
2023-04-23T19:46:00.673Z,100669.19
2023-04-23T19:48:28.908Z,100673.19
2023-04-23T19:50:57.190Z,100677.97
2023-04-23T19:53:26.647Z,100682.13
2023-04-23T19:55:54.794Z,100682.47
2023-04-23T19:58:24.545Z,100677.56
2023-04-23T20:00:52.769Z,100676.75
2023-04-23T20:03:21.438Z,100681.72
2023-04-23T20:05:49.960Z,100679.41
2023-04-23T20:08:26.214Z,100684.88
2023-04-23T20:10:54.624Z,100684.22
2023-04-23T20:13:24.948Z,100691.13
2023-04-23T20:15:55.218Z,100687.53
2023-04-23T20:18:25.619Z,100703.34
2023-04-23T20:20:53.967Z,100701.03
2023-04-23T20:23:22.258Z,100707.13
2023-04-23T20:25:50.517Z,100704.19
2023-04-23T20:28:18.728Z,100698.91
2023-04-23T20:30:48.422Z,100705.34
2023-04-23T20:33:18.813Z,100701.06
2023-04-23T20:35:47.918Z,100704.06
2023-04-23T20:38:19.301Z,100717.59
2023-04-23T20:40:47.731Z,100717.59
2023-04-23T20:43:16.585Z,100718.59
2023-04-23T20:45:46.822Z,100726.66
2023-04-23T20:48:16.904Z,100725.84
2023-04-23T20:50:45.138Z,100730.97
2023-04-23T20:53:14.513Z,100733.41
2023-04-23T20:55:42.731Z,100732.41
2023-04-23T20:58:11.249Z,100735.72
2023-04-23T21:00:39.621Z,100734.88
2023-04-23T21:03:07.991Z,100744.28
2023-04-23T21:06:00.504Z,100733.38
2023-04-23T21:08:28.773Z,100741.13
2023-04-23T21:10:57.642Z,100741.13
2023-04-23T21:13:26.098Z,100737.66
2023-04-23T21:15:54.702Z,100742.13
2023-04-23T21:18:22.829Z,100738.47
2023-04-23T21:20:52.900Z,100735.84
2023-04-23T21:23:21.154Z,100743.41
2023-04-23T21:25:49.475Z,100742.59
2023-04-23T21:28:17.645Z,100737.34
2023-04-23T21:30:49.039Z,100741.75
2023-04-23T21:33:17.612Z,100740.94
2023-04-23T21:35:45.946Z,100746.56
2023-04-23T21:38:15.619Z,100749.03
2023-04-23T21:40:44.624Z,100748.22
2023-04-23T21:43:13.500Z,100741.31
2023-04-23T21:45:41.710Z,100743.75
2023-04-23T21:48:10.317Z,100741.31
2023-04-23T21:50:38.544Z,100736.03
2023-04-23T21:53:07.143Z,100749.38
2023-04-23T21:55:36.876Z,100742.44
2023-04-23T21:58:16.643Z,100752.19
2023-04-23T22:00:46.176Z,100748.91
2023-04-23T22:03:18.791Z,100754.19
2023-04-23T22:05:59.522Z,100753.19
2023-04-23T22:08:28.050Z,100750.53
2023-04-23T22:10:57.723Z,100752.00
2023-04-23T22:13:26.062Z,100746.72
2023-04-23T22:15:54.630Z,100751.03
2023-04-23T22:18:22.756Z,100750.19
2023-04-23T22:20:51.223Z,100750.19
2023-04-23T22:23:19.605Z,100749.38
2023-04-23T22:25:48.046Z,100757.44
2023-04-23T22:28:18.307Z,100751.69
2023-04-23T22:30:46.621Z,100752.69
2023-04-23T22:33:14.910Z,100758.78
2023-04-23T22:35:43.274Z,100757.78
2023-04-23T22:38:11.576Z,100743.63
2023-04-23T22:40:39.776Z,100755.81
2023-04-23T22:43:08.013Z,100746.09
2023-04-23T22:45:37.822Z,100750.19
2023-04-23T22:48:06.515Z,100744.09
2023-04-23T22:50:34.840Z,100755.44
2023-04-23T22:53:03.026Z,100754.63
2023-04-23T22:55:31.202Z,100764.38
2023-04-23T22:57:59.872Z,100761.91
2023-04-23T23:00:28.200Z,100758.28
2023-04-23T23:02:57.753Z,100762.72
2023-04-23T23:05:26.346Z,100756.63
2023-04-23T23:07:55.675Z,100763.72
2023-04-23T23:10:23.889Z,100759.44
2023-04-23T23:12:52.693Z,100765.69
2023-04-23T23:15:21.014Z,100769.16
2023-04-23T23:17:49.314Z,100770.00
2023-04-23T23:20:19.965Z,100767.00
2023-04-23T23:22:48.671Z,100768.81
2023-04-23T23:25:17.177Z,100766.38
2023-04-23T23:27:45.591Z,100768.34
2023-04-23T23:30:14.235Z,100764.06
2023-04-23T23:32:42.520Z,100774.78
2023-04-23T23:35:11.501Z,100771.16
2023-04-23T23:37:41.158Z,100776.59
2023-04-23T23:40:10.833Z,100775.78
2023-04-23T23:42:39.151Z,100771.47
2023-04-23T23:45:10.030Z,100768.38
2023-04-23T23:47:38.616Z,100777.94
2023-04-23T23:50:08.030Z,100767.72
2023-04-23T23:52:36.267Z,100775.63
2023-04-23T23:55:07.156Z,100776.78
2023-04-23T23:57:35.639Z,100775.50
